Stevenson, AL (35772)

6:50 PM CST on December 05, 2016 (GMT -0600)
Richard City | | Change Station

Elev 630 ft 34.99 °N, 85.73 °W | Updated 2 seconds ago

Light Rain
Light Rain
50.4 °F
Feels Like 50.4 °F
N
4.9
Wind Variable Wind from East
Gusts 5.8 mph

Today
High -- | Low -- °F
--% Chance of Precip.
Yesterday
High -- | Low -- °F
Precip. -- in
Pressure 29.88 in
Visibility 9.0 miles
Clouds Mostly Cloudy 400 ft
Mostly Cloudy 1000 ft
Mostly Cloudy 3100 ft
Dew Point 47 °F
Humidity 89%
Rainfall 0.46 in
Snow Depth Not available.
6:36 AM 4:31 PM
Waxing Crescent, 36% visible
METAR K4A6 060035Z AUTO 02004KT 9SM -RA BKN004 BKN010 BKN031 10/10 A2988 RMK AO2 P0001
Pressure 29.88 in
Visibility 9.0 miles
Clouds Mostly Cloudy 400 ft
Mostly Cloudy 1000 ft
Mostly Cloudy 3100 ft
Dew Point 47 °F
Humidity 89%
Rainfall 0.46 in
Snow Depth Not available.
6:36 AM 4:31 PM
Waxing Crescent, 36% visible
METAR K4A6 060035Z AUTO 02004KT 9SM -RA BKN004 BKN010 BKN031 10/10 A2988 RMK AO2 P0001

10-Day Weather Forecast

Almanac

Astronomy

Dec. 05, 2016 Rise Set
Actual Time
Civil Twilight
Nautical Twilight
Astronomical Twilight
Moon
Length of Visible Light
Length of Day
Tomorrow will be .
, % of the Moon is Illuminated

Today's Extremes

State Highs State Lows

Community

WunderPhotos

Upload Photos

1,955,886 photos uploaded!

WunderBlog® & News

Nearby

Air Quality

  Air Quality AQ Index Pollutant
Not available.

Snow Depth

Station Depth Elevation

Earthquake Activity

City Distance Mag. Time & Date
Minimum magnitude displayed is 2.5.

Coastal Water Temperatures

Place Temperature

Stations

Nearby Weather Stations

Station Location Temp. Windchill Dew Point Humidity Wind Precip. Elev Updated Type
                   

Watches & Warnings

There are currently no watches in effect.